Aurora, MO

5:37 AM CST on December 25, 2014 (GMT -0600)
KMOMONET2 | Change Station
CLOSE
Current Station
Personal Weather Station
Location: Monett, MO
Elevation: 1306 ft
Nearby Weather Stations

Elev 1306 ft 36.93 °N, 93.93 °W | Updated 46 seconds ago

Clear
Clear
33.1 °F
Feels Like 30 °F
N
3.3
Wind Variable Wind from South
Gusts 7.6 mph

Today
High -- | Low -- °F
--% Chance of Precip.
Yesterday
High -- | Low -- °F
Precip. -- in
7:26 AM 5:04 PM
Waxing Crescent, 15% visible
Pressure 29.89 in
Visibility 10.0 miles
Clouds Clear
Windchill 30 °F
Dew Point 28 °F
Humidity 80%
Rainfall 0.00 in
Snow Depth Not available.
UV 0 out of 12
Pollen 2.50 out of 12
Air Quality Not available.
Flu Activity Not available.
METAR KHFJ 251115Z AUTO 18009KT 10SM CLR 00/M01 A2989 RMK AO2

More Conditions Fewer Conditions

Pressure 29.89 in
Visibility 10.0 miles
Clouds Clear
Windchill 30 °F
Dew Point 28 °F
Humidity 80%
Rainfall 0.00 in
Snow Depth Not available.
UV 0 out of 12
Pollen 2.50 out of 12
Air Quality Not available.
Flu Activity Not available.
METAR KHFJ 251115Z AUTO 18009KT 10SM CLR 00/M01 A2989 RMK AO2

More Conditions Fewer Conditions

10-Day Weather Forecast

Almanac

Astronomy

Dec. 25, 2014 Rise Set
Actual Time
Civil Twilight
Nautical Twilight
Astronomical Twilight
Moon
Length of Visible Light
Length of Day
Tomorrow will be .
, % of the Moon is Illuminated

Today's Extremes

State Highs State Lows

Community

WunderPhotos

Upload Photos

1,780,259 photos uploaded!

WunderBlogs® & News

Nearby

Air Quality

  Air Quality AQ Index Pollutant
Not available.

Snow Depth

Station Depth Elevation

Earthquake Activity

City Distance Mag. Time & Date
Minimum magnitude displayed is 2.5.

Coastal Water Temperatures

Place Temperature

Nearby Weather Stations